sensor_id;sensor_type;location;lat;lon;timestamp;P1;durP1;ratioP1;P2;durP2;ratioP2
1693;SDS011;71975;47.068;15.408;2023-09-19T00:01:07;7.97;;;4.80;;
1693;SDS011;71975;47.068;15.408;2023-09-19T00:06:12;10.83;;;4.83;;
1693;SDS011;71975;47.068;15.408;2023-09-19T00:11:18;6.10;;;5.20;;
1693;SDS011;71975;47.068;15.408;2023-09-19T00:16:21;6.43;;;3.80;;
1693;SDS011;71975;47.068;15.408;2023-09-19T00:21:24;6.00;;;4.27;;
1693;SDS011;71975;47.068;15.408;2023-09-19T00:26:29;6.80;;;4.03;;
1693;SDS011;71975;47.068;15.408;2023-09-19T00:31:35;4.77;;;2.70;;
1693;SDS011;71975;47.068;15.408;2023-09-19T00:36:39;3.20;;;2.90;;
1693;SDS011;71975;47.068;15.408;2023-09-19T00:41:46;4.63;;;2.80;;
1693;SDS011;71975;47.068;15.408;2023-09-19T00:46:49;3.90;;;3.10;;
1693;SDS011;71975;47.068;15.408;2023-09-19T00:51:53;5.10;;;3.73;;
1693;SDS011;71975;47.068;15.408;2023-09-19T00:56:59;6.57;;;4.10;;
1693;SDS011;71975;47.068;15.408;2023-09-19T01:02:02;8.80;;;4.40;;
1693;SDS011;71975;47.068;15.408;2023-09-19T01:07:06;4.97;;;4.03;;
1693;SDS011;71975;47.068;15.408;2023-09-19T01:12:11;4.93;;;4.37;;
1693;SDS011;71975;47.068;15.408;2023-09-19T01:17:24;5.30;;;3.70;;
1693;SDS011;71975;47.068;15.408;2023-09-19T01:22:32;4.83;;;3.60;;
1693;SDS011;71975;47.068;15.408;2023-09-19T01:28:06;4.63;;;3.17;;
1693;SDS011;71975;47.068;15.408;2023-09-19T01:33:19;5.97;;;3.37;;
1693;SDS011;71975;47.068;15.408;2023-09-19T01:38:22;6.13;;;3.33;;
1693;SDS011;71975;47.068;15.408;2023-09-19T01:43:26;3.37;;;3.07;;
1693;SDS011;71975;47.068;15.408;2023-09-19T01:48:35;4.03;;;2.47;;
1693;SDS011;71975;47.068;15.408;2023-09-19T01:53:43;2.00;;;1.77;;
1693;SDS011;71975;47.068;15.408;2023-09-19T01:58:53;2.53;;;2.33;;
1693;SDS011;71975;47.068;15.408;2023-09-19T02:04:03;3.63;;;1.97;;
1693;SDS011;71975;47.068;15.408;2023-09-19T02:09:06;2.23;;;1.90;;
1693;SDS011;71975;47.068;15.408;2023-09-19T02:14:10;2.73;;;2.03;;
1693;SDS011;71975;47.068;15.408;2023-09-19T02:19:14;2.40;;;1.40;;
1693;SDS011;71975;47.068;15.408;2023-09-19T02:24:18;1.37;;;1.23;;
1693;SDS011;71975;47.068;15.408;2023-09-19T02:29:21;5.13;;;1.40;;
1693;SDS011;71975;47.068;15.408;2023-09-19T02:34:25;1.33;;;0.80;;
1693;SDS011;71975;47.068;15.408;2023-09-19T02:39:29;1.60;;;1.10;;
1693;SDS011;71975;47.068;15.408;2023-09-19T02:44:32;1.80;;;1.03;;
1693;SDS011;71975;47.068;15.408;2023-09-19T02:49:36;2.50;;;1.57;;
1693;SDS011;71975;47.068;15.408;2023-09-19T02:54:39;3.53;;;1.30;;
1693;SDS011;71975;47.068;15.408;2023-09-19T02:59:45;1.33;;;1.20;;
1693;SDS011;71975;47.068;15.408;2023-09-19T03:04:49;1.20;;;1.10;;
1693;SDS011;71975;47.068;15.408;2023-09-19T03:09:53;1.60;;;1.50;;
1693;SDS011;71975;47.068;15.408;2023-09-19T03:14:56;2.70;;;1.53;;
1693;SDS011;71975;47.068;15.408;2023-09-19T03:20:02;1.87;;;1.10;;
1693;SDS011;71975;47.068;15.408;2023-09-19T03:25:06;1.37;;;0.97;;
1693;SDS011;71975;47.068;15.408;2023-09-19T03:30:10;1.53;;;1.20;;
1693;SDS011;71975;47.068;15.408;2023-09-19T03:35:16;1.23;;;1.13;;
1693;SDS011;71975;47.068;15.408;2023-09-19T03:40:20;2.33;;;0.80;;
1693;SDS011;71975;47.068;15.408;2023-09-19T03:45:23;1.53;;;0.83;;
1693;SDS011;71975;47.068;15.408;2023-09-19T03:50:28;1.63;;;1.47;;
1693;SDS011;71975;47.068;15.408;2023-09-19T03:55:30;2.13;;;1.20;;
1693;SDS011;71975;47.068;15.408;2023-09-19T04:00:33;2.07;;;1.20;;
1693;SDS011;71975;47.068;15.408;2023-09-19T04:05:41;1.30;;;1.00;;
1693;SDS011;71975;47.068;15.408;2023-09-19T04:10:44;3.63;;;1.97;;
1693;SDS011;71975;47.068;15.408;2023-09-19T04:15:47;4.20;;;1.40;;
1693;SDS011;71975;47.068;15.408;2023-09-19T04:20:51;3.10;;;1.48;;
1693;SDS011;71975;47.068;15.408;2023-09-19T04:25:55;1.73;;;1.10;;
1693;SDS011;71975;47.068;15.408;2023-09-19T04:30:58;2.77;;;1.10;;
1693;SDS011;71975;47.068;15.408;2023-09-19T04:36:02;2.07;;;1.10;;
1693;SDS011;71975;47.068;15.408;2023-09-19T04:41:28;1.23;;;1.00;;
1693;SDS011;71975;47.068;15.408;2023-09-19T04:46:31;1.00;;;0.90;;
1693;SDS011;71975;47.068;15.408;2023-09-19T04:51:36;2.87;;;1.47;;
1693;SDS011;71975;47.068;15.408;2023-09-19T04:56:39;4.17;;;1.40;;
1693;SDS011;71975;47.068;15.408;2023-09-19T05:01:42;1.90;;;1.80;;
1693;SDS011;71975;47.068;15.408;2023-09-19T05:06:46;5.30;;;2.00;;
1693;SDS011;71975;47.068;15.408;2023-09-19T05:11:49;2.80;;;1.13;;
1693;SDS011;71975;47.068;15.408;2023-09-19T05:16:54;2.37;;;1.27;;
1693;SDS011;71975;47.068;15.408;2023-09-19T05:21:58;2.30;;;1.60;;
1693;SDS011;71975;47.068;15.408;2023-09-19T05:27:01;3.20;;;1.80;;
1693;SDS011;71975;47.068;15.408;2023-09-19T05:32:05;2.43;;;1.43;;
1693;SDS011;71975;47.068;15.408;2023-09-19T05:37:09;2.50;;;1.57;;
1693;SDS011;71975;47.068;15.408;2023-09-19T05:42:12;3.85;;;3.25;;
1693;SDS011;71975;47.068;15.408;2023-09-19T05:47:15;2.03;;;1.63;;
1693;SDS011;71975;47.068;15.408;2023-09-19T05:52:20;2.40;;;1.73;;
1693;SDS011;71975;47.068;15.408;2023-09-19T05:57:24;2.60;;;1.90;;
1693;SDS011;71975;47.068;15.408;2023-09-19T06:02:27;2.87;;;1.90;;
1693;SDS011;71975;47.068;15.408;2023-09-19T06:07:33;5.87;;;5.40;;
1693;SDS011;71975;47.068;15.408;2023-09-19T06:12:38;3.70;;;3.00;;
1693;SDS011;71975;47.068;15.408;2023-09-19T06:17:42;3.20;;;2.80;;
1693;SDS011;71975;47.068;15.408;2023-09-19T06:22:46;2.20;;;1.97;;
1693;SDS011;71975;47.068;15.408;2023-09-19T06:27:50;2.13;;;1.83;;
1693;SDS011;71975;47.068;15.408;2023-09-19T06:32:55;5.10;;;2.40;;
1693;SDS011;71975;47.068;15.408;2023-09-19T06:38:01;3.67;;;2.33;;
1693;SDS011;71975;47.068;15.408;2023-09-19T06:43:05;4.67;;;1.90;;
1693;SDS011;71975;47.068;15.408;2023-09-19T06:48:08;4.20;;;2.23;;
1693;SDS011;71975;47.068;15.408;2023-09-19T06:53:13;6.00;;;5.40;;
1693;SDS011;71975;47.068;15.408;2023-09-19T06:58:16;3.53;;;1.73;;
1693;SDS011;71975;47.068;15.408;2023-09-19T07:03:19;3.40;;;2.30;;
1693;SDS011;71975;47.068;15.408;2023-09-19T07:08:26;2.73;;;1.83;;
1693;SDS011;71975;47.068;15.408;2023-09-19T07:13:29;3.80;;;1.97;;
1693;SDS011;71975;47.068;15.408;2023-09-19T07:18:32;3.33;;;2.07;;
1693;SDS011;71975;47.068;15.408;2023-09-19T07:23:36;2.70;;;1.87;;
1693;SDS011;71975;47.068;15.408;2023-09-19T07:28:40;3.20;;;1.80;;
1693;SDS011;71975;47.068;15.408;2023-09-19T07:33:43;16.53;;;5.77;;
1693;SDS011;71975;47.068;15.408;2023-09-19T07:38:47;8.40;;;2.97;;
1693;SDS011;71975;47.068;15.408;2023-09-19T07:43:50;3.70;;;2.97;;
1693;SDS011;71975;47.068;15.408;2023-09-19T07:48:54;8.57;;;2.77;;
1693;SDS011;71975;47.068;15.408;2023-09-19T07:53:58;3.80;;;2.90;;
1693;SDS011;71975;47.068;15.408;2023-09-19T07:59:02;13.43;;;6.73;;
1693;SDS011;71975;47.068;15.408;2023-09-19T08:04:05;16.33;;;7.10;;
1693;SDS011;71975;47.068;15.408;2023-09-19T08:09:10;4.60;;;3.23;;
1693;SDS011;71975;47.068;15.408;2023-09-19T08:14:15;4.67;;;2.50;;
1693;SDS011;71975;47.068;15.408;2023-09-19T08:19:18;2.97;;;2.63;;
1693;SDS011;71975;47.068;15.408;2023-09-19T08:24:26;4.23;;;3.67;;
1693;SDS011;71975;47.068;15.408;2023-09-19T08:29:30;4.03;;;3.73;;
1693;SDS011;71975;47.068;15.408;2023-09-19T08:34:34;3.60;;;2.70;;
1693;SDS011;71975;47.068;15.408;2023-09-19T08:39:41;3.27;;;2.07;;
1693;SDS011;71975;47.068;15.408;2023-09-19T08:44:44;3.90;;;2.33;;
1693;SDS011;71975;47.068;15.408;2023-09-19T08:49:50;2.37;;;2.17;;
1693;SDS011;71975;47.068;15.408;2023-09-19T08:55:04;2.70;;;2.10;;
1693;SDS011;71975;47.068;15.408;2023-09-19T09:00:11;4.07;;;2.20;;
1693;SDS011;71975;47.068;15.408;2023-09-19T09:05:16;2.23;;;2.03;;
1693;SDS011;71975;47.068;15.408;2023-09-19T09:10:26;2.50;;;1.93;;
1693;SDS011;71975;47.068;15.408;2023-09-19T09:15:29;5.43;;;3.47;;
1693;SDS011;71975;47.068;15.408;2023-09-19T09:20:34;2.30;;;2.10;;
1693;SDS011;71975;47.068;15.408;2023-09-19T09:25:47;4.70;;;3.10;;
1693;SDS011;71975;47.068;15.408;2023-09-19T09:30:56;2.80;;;2.43;;
1693;SDS011;71975;47.068;15.408;2023-09-19T09:36:00;4.23;;;2.47;;
1693;SDS011;71975;47.068;15.408;2023-09-19T09:41:06;4.10;;;2.40;;
1693;SDS011;71975;47.068;15.408;2023-09-19T09:46:12;4.87;;;2.80;;
1693;SDS011;71975;47.068;15.408;2023-09-19T09:51:36;4.43;;;3.20;;
1693;SDS011;71975;47.068;15.408;2023-09-19T09:56:57;5.73;;;2.70;;
1693;SDS011;71975;47.068;15.408;2023-09-19T10:02:01;3.67;;;3.10;;
1693;SDS011;71975;47.068;15.408;2023-09-19T10:07:05;2.80;;;2.60;;
1693;SDS011;71975;47.068;15.408;2023-09-19T10:12:13;6.53;;;3.33;;
1693;SDS011;71975;47.068;15.408;2023-09-19T10:17:19;4.67;;;2.50;;
1693;SDS011;71975;47.068;15.408;2023-09-19T10:22:26;3.90;;;3.00;;
1693;SDS011;71975;47.068;15.408;2023-09-19T10:27:33;5.30;;;2.97;;
1693;SDS011;71975;47.068;15.408;2023-09-19T10:32:39;3.93;;;3.63;;
1693;SDS011;71975;47.068;15.408;2023-09-19T10:37:43;3.33;;;2.70;;
1693;SDS011;71975;47.068;15.408;2023-09-19T10:42:54;3.63;;;2.50;;
1693;SDS011;71975;47.068;15.408;2023-09-19T10:48:02;3.23;;;2.63;;
1693;SDS011;71975;47.068;15.408;2023-09-19T10:53:06;4.03;;;1.87;;
1693;SDS011;71975;47.068;15.408;2023-09-19T10:58:13;2.90;;;1.53;;
1693;SDS011;71975;47.068;15.408;2023-09-19T11:03:27;5.23;;;3.80;;
1693;SDS011;71975;47.068;15.408;2023-09-19T11:30:51;2.23;;;1.80;;
1693;SDS011;71975;47.068;15.408;2023-09-19T11:35:58;5.40;;;1.90;;
1693;SDS011;71975;47.068;15.408;2023-09-19T11:46:51;5.00;;;2.00;;
1693;SDS011;71975;47.068;15.408;2023-09-19T11:51:54;2.77;;;1.87;;
1693;SDS011;71975;47.068;15.408;2023-09-19T11:56:59;3.37;;;3.03;;
1693;SDS011;71975;47.068;15.408;2023-09-19T12:02:05;5.37;;;2.50;;
1693;SDS011;71975;47.068;15.408;2023-09-19T12:07:10;2.27;;;1.87;;
1693;SDS011;71975;47.068;15.408;2023-09-19T12:12:19;2.53;;;1.40;;
1693;SDS011;71975;47.068;15.408;2023-09-19T12:17:23;3.00;;;1.70;;
1693;SDS011;71975;47.068;15.408;2023-09-19T12:22:31;2.37;;;1.50;;
1693;SDS011;71975;47.068;15.408;2023-09-19T12:27:42;5.30;;;2.40;;
1693;SDS011;71975;47.068;15.408;2023-09-19T12:32:49;2.53;;;1.80;;
1693;SDS011;71975;47.068;15.408;2023-09-19T12:37:52;4.83;;;1.90;;
1693;SDS011;71975;47.068;15.408;2023-09-19T12:42:56;3.70;;;1.93;;
1693;SDS011;71975;47.068;15.408;2023-09-19T12:48:21;10.53;;;2.67;;
1693;SDS011;71975;47.068;15.408;2023-09-19T12:53:32;2.10;;;1.90;;
1693;SDS011;71975;47.068;15.408;2023-09-19T12:58:48;2.60;;;1.93;;
1693;SDS011;71975;47.068;15.408;2023-09-19T13:09:21;1.97;;;1.77;;
1693;SDS011;71975;47.068;15.408;2023-09-19T13:14:26;4.20;;;1.87;;
1693;SDS011;71975;47.068;15.408;2023-09-19T13:19:38;4.03;;;2.90;;
1693;SDS011;71975;47.068;15.408;2023-09-19T13:24:43;2.80;;;1.40;;
1693;SDS011;71975;47.068;15.408;2023-09-19T13:29:46;1.90;;;1.80;;
1693;SDS011;71975;47.068;15.408;2023-09-19T13:34:50;4.37;;;2.17;;
1693;SDS011;71975;47.068;15.408;2023-09-19T13:39:53;1.80;;;1.70;;
1693;SDS011;71975;47.068;15.408;2023-09-19T13:44:56;2.10;;;1.60;;
1693;SDS011;71975;47.068;15.408;2023-09-19T13:50:01;2.10;;;1.90;;
1693;SDS011;71975;47.068;15.408;2023-09-19T13:55:06;3.10;;;2.13;;
1693;SDS011;71975;47.068;15.408;2023-09-19T14:00:10;1.93;;;1.60;;
1693;SDS011;71975;47.068;15.408;2023-09-19T14:05:19;3.23;;;1.93;;
1693;SDS011;71975;47.068;15.408;2023-09-19T14:10:22;3.27;;;2.23;;
1693;SDS011;71975;47.068;15.408;2023-09-19T14:15:26;4.17;;;2.50;;
1693;SDS011;71975;47.068;15.408;2023-09-19T14:20:33;5.03;;;2.17;;
1693;SDS011;71975;47.068;15.408;2023-09-19T14:25:40;3.00;;;1.80;;
1693;SDS011;71975;47.068;15.408;2023-09-19T14:30:43;2.43;;;1.77;;
1693;SDS011;71975;47.068;15.408;2023-09-19T14:35:49;4.53;;;1.83;;
1693;SDS011;71975;47.068;15.408;2023-09-19T14:40:58;2.50;;;2.13;;
1693;SDS011;71975;47.068;15.408;2023-09-19T14:46:03;4.13;;;2.90;;
1693;SDS011;71975;47.068;15.408;2023-09-19T14:51:07;2.37;;;2.07;;
1693;SDS011;71975;47.068;15.408;2023-09-19T14:56:13;4.17;;;1.77;;
1693;SDS011;71975;47.068;15.408;2023-09-19T15:01:20;2.33;;;1.50;;
1693;SDS011;71975;47.068;15.408;2023-09-19T15:06:26;2.60;;;1.77;;
1693;SDS011;71975;47.068;15.408;2023-09-19T15:11:30;6.10;;;2.77;;
1693;SDS011;71975;47.068;15.408;2023-09-19T15:16:35;6.80;;;2.90;;
1693;SDS011;71975;47.068;15.408;2023-09-19T15:21:42;4.73;;;3.13;;
1693;SDS011;71975;47.068;15.408;2023-09-19T15:26:47;2.30;;;2.10;;
1693;SDS011;71975;47.068;15.408;2023-09-19T15:31:54;3.30;;;1.87;;
1693;SDS011;71975;47.068;15.408;2023-09-19T15:37:06;5.80;;;2.47;;
1693;SDS011;71975;47.068;15.408;2023-09-19T15:42:11;3.90;;;2.43;;
1693;SDS011;71975;47.068;15.408;2023-09-19T15:47:18;3.77;;;2.00;;
1693;SDS011;71975;47.068;15.408;2023-09-19T15:52:25;2.07;;;1.87;;
1693;SDS011;71975;47.068;15.408;2023-09-19T15:57:31;3.83;;;2.27;;
1693;SDS011;71975;47.068;15.408;2023-09-19T16:02:36;2.07;;;1.87;;
1693;SDS011;71975;47.068;15.408;2023-09-19T16:07:43;2.30;;;2.13;;
1693;SDS011;71975;47.068;15.408;2023-09-19T16:12:49;3.13;;;2.10;;
1693;SDS011;71975;47.068;15.408;2023-09-19T16:17:54;2.53;;;2.33;;
1693;SDS011;71975;47.068;15.408;2023-09-19T16:23:02;2.20;;;1.97;;
1693;SDS011;71975;47.068;15.408;2023-09-19T16:28:08;2.47;;;2.10;;
1693;SDS011;71975;47.068;15.408;2023-09-19T16:33:15;1.97;;;1.77;;
1693;SDS011;71975;47.068;15.408;2023-09-19T16:38:22;2.97;;;2.13;;
1693;SDS011;71975;47.068;15.408;2023-09-19T16:43:28;2.10;;;1.90;;
1693;SDS011;71975;47.068;15.408;2023-09-19T16:48:35;2.10;;;1.63;;
1693;SDS011;71975;47.068;15.408;2023-09-19T16:54:04;2.87;;;2.33;;
1693;SDS011;71975;47.068;15.408;2023-09-19T16:59:10;3.10;;;2.50;;
1693;SDS011;71975;47.068;15.408;2023-09-19T17:04:17;3.70;;;3.30;;
1693;SDS011;71975;47.068;15.408;2023-09-19T17:09:28;10.73;;;9.50;;
1693;SDS011;71975;47.068;15.408;2023-09-19T17:14:36;7.67;;;6.57;;
1693;SDS011;71975;47.068;15.408;2023-09-19T17:19:44;7.47;;;5.70;;
1693;SDS011;71975;47.068;15.408;2023-09-19T17:24:52;6.43;;;4.97;;
1693;SDS011;71975;47.068;15.408;2023-09-19T17:29:58;5.40;;;3.83;;
1693;SDS011;71975;47.068;15.408;2023-09-19T17:35:05;5.13;;;4.63;;
1693;SDS011;71975;47.068;15.408;2023-09-19T17:40:13;5.50;;;3.67;;
1693;SDS011;71975;47.068;15.408;2023-09-19T17:45:21;4.40;;;2.70;;
1693;SDS011;71975;47.068;15.408;2023-09-19T17:50:31;6.57;;;2.83;;
1693;SDS011;71975;47.068;15.408;2023-09-19T17:55:41;4.70;;;2.73;;
1693;SDS011;71975;47.068;15.408;2023-09-19T18:00:47;3.67;;;3.13;;
1693;SDS011;71975;47.068;15.408;2023-09-19T18:05:54;3.10;;;2.90;;
1693;SDS011;71975;47.068;15.408;2023-09-19T18:11:02;3.10;;;2.80;;
1693;SDS011;71975;47.068;15.408;2023-09-19T18:16:16;3.13;;;2.83;;
1693;SDS011;71975;47.068;15.408;2023-09-19T18:21:27;3.03;;;2.70;;
1693;SDS011;71975;47.068;15.408;2023-09-19T18:26:36;5.73;;;3.13;;
1693;SDS011;71975;47.068;15.408;2023-09-19T18:31:45;5.57;;;2.60;;
1693;SDS011;71975;47.068;15.408;2023-09-19T18:36:52;3.50;;;2.80;;
1693;SDS011;71975;47.068;15.408;2023-09-19T18:42:02;5.07;;;2.50;;
1693;SDS011;71975;47.068;15.408;2023-09-19T18:47:11;4.60;;;3.50;;
1693;SDS011;71975;47.068;15.408;2023-09-19T18:52:19;3.33;;;2.67;;
1693;SDS011;71975;47.068;15.408;2023-09-19T18:57:32;6.00;;;3.13;;
1693;SDS011;71975;47.068;15.408;2023-09-19T19:02:38;4.47;;;3.53;;
1693;SDS011;71975;47.068;15.408;2023-09-19T19:07:52;3.47;;;2.70;;
1693;SDS011;71975;47.068;15.408;2023-09-19T19:13:01;4.67;;;3.93;;
1693;SDS011;71975;47.068;15.408;2023-09-19T19:18:11;5.13;;;4.10;;
1693;SDS011;71975;47.068;15.408;2023-09-19T19:23:19;3.60;;;3.30;;
1693;SDS011;71975;47.068;15.408;2023-09-19T19:28:26;7.47;;;6.87;;
1693;SDS011;71975;47.068;15.408;2023-09-19T19:33:32;4.80;;;4.30;;
1693;SDS011;71975;47.068;15.408;2023-09-19T19:38:38;4.10;;;3.70;;
1693;SDS011;71975;47.068;15.408;2023-09-19T19:43:45;6.60;;;3.40;;
1693;SDS011;71975;47.068;15.408;2023-09-19T19:48:51;4.20;;;3.80;;
1693;SDS011;71975;47.068;15.408;2023-09-19T19:54:00;3.60;;;3.00;;
1693;SDS011;71975;47.068;15.408;2023-09-19T19:59:09;5.40;;;4.07;;
1693;SDS011;71975;47.068;15.408;2023-09-19T20:04:15;4.07;;;3.57;;
1693;SDS011;71975;47.068;15.408;2023-09-19T20:09:24;3.90;;;2.97;;
1693;SDS011;71975;47.068;15.408;2023-09-19T20:14:33;3.30;;;2.90;;
1693;SDS011;71975;47.068;15.408;2023-09-19T20:19:42;5.00;;;3.13;;
1693;SDS011;71975;47.068;15.408;2023-09-19T20:24:50;4.07;;;3.40;;
1693;SDS011;71975;47.068;15.408;2023-09-19T20:29:58;5.10;;;3.00;;
1693;SDS011;71975;47.068;15.408;2023-09-19T20:35:06;4.03;;;3.23;;
1693;SDS011;71975;47.068;15.408;2023-09-19T20:40:16;6.50;;;3.73;;
1693;SDS011;71975;47.068;15.408;2023-09-19T20:45:26;3.67;;;2.63;;
1693;SDS011;71975;47.068;15.408;2023-09-19T20:50:31;4.43;;;3.13;;
1693;SDS011;71975;47.068;15.408;2023-09-19T20:55:37;5.43;;;3.10;;
1693;SDS011;71975;47.068;15.408;2023-09-19T21:00:46;3.77;;;2.70;;
1693;SDS011;71975;47.068;15.408;2023-09-19T21:05:58;5.20;;;4.00;;
1693;SDS011;71975;47.068;15.408;2023-09-19T21:11:10;4.90;;;2.80;;
1693;SDS011;71975;47.068;15.408;2023-09-19T21:16:18;6.47;;;3.10;;
1693;SDS011;71975;47.068;15.408;2023-09-19T21:21:23;4.10;;;2.97;;
1693;SDS011;71975;47.068;15.408;2023-09-19T21:26:26;3.30;;;2.80;;
1693;SDS011;71975;47.068;15.408;2023-09-19T21:31:30;3.33;;;3.03;;
1693;SDS011;71975;47.068;15.408;2023-09-19T21:36:34;3.30;;;2.83;;
1693;SDS011;71975;47.068;15.408;2023-09-19T21:41:37;3.43;;;2.77;;
1693;SDS011;71975;47.068;15.408;2023-09-19T21:46:44;5.87;;;3.30;;
1693;SDS011;71975;47.068;15.408;2023-09-19T21:51:47;3.33;;;3.03;;
1693;SDS011;71975;47.068;15.408;2023-09-19T21:56:50;4.53;;;3.40;;
1693;SDS011;71975;47.068;15.408;2023-09-19T22:01:55;3.67;;;3.37;;
1693;SDS011;71975;47.068;15.408;2023-09-19T22:06:58;4.40;;;3.37;;
1693;SDS011;71975;47.068;15.408;2023-09-19T22:12:02;3.33;;;2.63;;
1693;SDS011;71975;47.068;15.408;2023-09-19T22:17:09;2.57;;;2.37;;
1693;SDS011;71975;47.068;15.408;2023-09-19T22:22:14;5.60;;;3.03;;
1693;SDS011;71975;47.068;15.408;2023-09-19T22:27:18;3.90;;;3.00;;
1693;SDS011;71975;47.068;15.408;2023-09-19T22:32:23;4.17;;;3.23;;
1693;SDS011;71975;47.068;15.408;2023-09-19T22:37:26;4.63;;;3.00;;
1693;SDS011;71975;47.068;15.408;2023-09-19T22:42:30;3.70;;;2.30;;
1693;SDS011;71975;47.068;15.408;2023-09-19T22:47:34;2.90;;;2.60;;
1693;SDS011;71975;47.068;15.408;2023-09-19T22:52:37;3.53;;;2.60;;
1693;SDS011;71975;47.068;15.408;2023-09-19T22:57:40;4.20;;;2.70;;
1693;SDS011;71975;47.068;15.408;2023-09-19T23:02:46;3.73;;;3.00;;
1693;SDS011;71975;47.068;15.408;2023-09-19T23:07:49;4.17;;;2.60;;
1693;SDS011;71975;47.068;15.408;2023-09-19T23:12:57;2.53;;;2.13;;
1693;SDS011;71975;47.068;15.408;2023-09-19T23:18:02;3.07;;;2.77;;
1693;SDS011;71975;47.068;15.408;2023-09-19T23:23:11;2.67;;;2.47;;
1693;SDS011;71975;47.068;15.408;2023-09-19T23:28:17;4.47;;;2.47;;
1693;SDS011;71975;47.068;15.408;2023-09-19T23:33:22;3.30;;;3.00;;
1693;SDS011;71975;47.068;15.408;2023-09-19T23:38:25;3.10;;;2.80;;
1693;SDS011;71975;47.068;15.408;2023-09-19T23:43:28;4.50;;;3.10;;
1693;SDS011;71975;47.068;15.408;2023-09-19T23:48:35;5.27;;;2.87;;
1693;SDS011;71975;47.068;15.408;2023-09-19T23:53:42;2.70;;;2.30;;
1693;SDS011;71975;47.068;15.408;2023-09-19T23:58:45;6.23;;;2.93;;
